createdAt,value
2022-12-23T00:01:28.050Z,15.98
2022-12-23T00:03:58.850Z,16.83
2022-12-23T00:06:27.751Z,15.73
2022-12-23T00:08:58.827Z,16.08
2022-12-23T00:11:29.882Z,17.17
2022-12-23T00:14:21.067Z,16.67
2022-12-23T00:16:51.579Z,15.82
2022-12-23T00:19:20.024Z,16.77
2022-12-23T00:21:49.329Z,16.30
2022-12-23T00:24:17.606Z,15.93
2022-12-23T00:26:47.746Z,16.20
2022-12-23T00:29:18.754Z,15.55
2022-12-23T00:34:15.341Z,15.05
2022-12-23T00:36:43.870Z,16.10
2022-12-23T00:39:30.806Z,15.07
2022-12-23T00:42:17.976Z,15.00
2022-12-23T00:44:46.208Z,16.65
2022-12-23T00:47:36.358Z,15.00
2022-12-23T00:50:03.836Z,14.48
2022-12-23T00:52:32.399Z,15.23
2022-12-23T00:55:00.803Z,15.10
2022-12-23T00:57:30.953Z,15.10
2022-12-23T00:59:59.289Z,14.27
2022-12-23T01:02:45.727Z,14.15
2022-12-23T01:05:37.173Z,14.30
2022-12-23T01:08:07.341Z,15.13
2022-12-23T01:10:35.949Z,15.63
2022-12-23T01:13:06.341Z,14.32
2022-12-23T01:15:34.953Z,15.95
2022-12-23T01:18:03.611Z,15.23
2022-12-23T01:20:31.784Z,15.32
2022-12-23T01:23:00.332Z,16.35
2022-12-23T01:25:28.513Z,16.20
2022-12-23T01:27:57.106Z,15.50
2022-12-23T01:30:26.833Z,17.15
2022-12-23T01:32:55.347Z,16.90
2022-12-23T01:35:23.630Z,16.00
2022-12-23T01:37:52.081Z,17.15
2022-12-23T01:40:20.442Z,16.92
2022-12-23T01:42:47.921Z,16.30
2022-12-23T01:45:21.001Z,14.52
2022-12-23T01:47:54.081Z,15.50
2022-12-23T01:50:25.553Z,16.52
2022-12-23T01:53:04.574Z,17.35
2022-12-23T01:55:39.127Z,18.20
2022-12-23T01:58:11.211Z,17.00
2022-12-23T02:00:57.923Z,19.08
2022-12-23T02:03:46.320Z,18.88
2022-12-23T02:06:36.033Z,18.58
2022-12-23T02:09:18.376Z,19.27
2022-12-23T02:11:59.361Z,19.42
2022-12-23T02:14:57.965Z,20.02
2022-12-23T02:17:29.846Z,23.20
2022-12-23T02:20:17.729Z,22.23
2022-12-23T02:23:02.090Z,23.10
2022-12-23T02:25:49.957Z,21.98
2022-12-23T02:28:33.651Z,22.95
2022-12-23T02:31:10.658Z,22.27
2022-12-23T02:33:48.921Z,23.10
2022-12-23T02:36:30.152Z,23.70
2022-12-23T02:39:01.391Z,23.77
2022-12-23T02:41:34.870Z,22.58
2022-12-23T02:44:07.140Z,23.55
2022-12-23T02:46:39.814Z,23.23
2022-12-23T02:49:11.408Z,23.73
2022-12-23T02:51:45.719Z,23.60
2022-12-23T02:54:26.291Z,23.80
2022-12-23T02:56:55.587Z,23.13
2022-12-23T02:59:26.000Z,22.50
2022-12-23T03:01:56.491Z,23.10
2022-12-23T03:04:24.895Z,21.95
2022-12-23T03:06:55.040Z,22.05
2022-12-23T03:09:26.883Z,21.08
2022-12-23T03:12:03.057Z,20.73
2022-12-23T03:14:55.167Z,20.05
2022-12-23T03:17:40.984Z,19.52
2022-12-23T03:20:15.302Z,20.33
2022-12-23T03:22:51.057Z,16.73
2022-12-23T03:25:21.708Z,18.10
2022-12-23T03:27:54.462Z,17.65
2022-12-23T03:30:24.279Z,16.23
2022-12-23T03:32:56.859Z,16.30
2022-12-23T03:35:31.810Z,15.40
2022-12-23T03:38:02.115Z,15.63
2022-12-23T03:40:35.383Z,15.38
2022-12-23T03:43:06.523Z,14.90
2022-12-23T03:45:39.772Z,14.98
2022-12-23T03:48:15.187Z,15.20
2022-12-23T03:50:44.558Z,15.10
2022-12-23T03:53:16.619Z,15.40
2022-12-23T03:55:48.417Z,14.48
2022-12-23T03:58:25.516Z,15.57
2022-12-23T04:00:59.718Z,14.55
2022-12-23T04:03:32.806Z,15.10
2022-12-23T04:06:03.482Z,15.27
2022-12-23T04:08:34.890Z,15.73
2022-12-23T04:11:03.922Z,16.02
2022-12-23T04:13:33.194Z,14.73
2022-12-23T04:16:02.097Z,15.48
2022-12-23T04:18:32.108Z,14.85
2022-12-23T04:21:00.340Z,17.98
2022-12-23T04:23:29.023Z,17.60
2022-12-23T04:25:57.312Z,15.98
2022-12-23T04:28:25.896Z,17.70
2022-12-23T04:30:54.158Z,14.82
2022-12-23T04:33:22.772Z,14.63
2022-12-23T04:35:52.374Z,13.88
2022-12-23T04:38:20.879Z,11.80
2022-12-23T04:40:49.339Z,12.10
2022-12-23T04:43:17.862Z,11.40
2022-12-23T04:45:46.268Z,11.50
2022-12-23T04:48:14.821Z,12.52
2022-12-23T04:50:43.061Z,11.77
2022-12-23T04:53:12.925Z,11.98
2022-12-23T04:55:41.254Z,11.73
2022-12-23T04:58:10.065Z,11.10
2022-12-23T05:00:40.047Z,11.68
2022-12-23T05:03:08.920Z,10.57
2022-12-23T05:05:37.345Z,11.25
2022-12-23T05:08:07.102Z,11.35
2022-12-23T05:10:36.863Z,10.25
2022-12-23T05:13:05.374Z,9.80
2022-12-23T05:15:34.132Z,9.93
2022-12-23T05:18:02.730Z,10.65
2022-12-23T05:20:31.036Z,10.00
2022-12-23T05:22:59.620Z,9.93
2022-12-23T05:25:28.257Z,9.73
2022-12-23T05:27:58.300Z,10.25
2022-12-23T05:30:26.695Z,10.30
2022-12-23T05:32:55.331Z,9.05
2022-12-23T05:35:23.604Z,9.02
2022-12-23T05:37:52.197Z,9.50
2022-12-23T05:40:23.705Z,9.00
2022-12-23T05:42:54.317Z,9.95
2022-12-23T05:45:24.110Z,9.00
2022-12-23T05:47:52.671Z,9.90
2022-12-23T05:50:20.900Z,9.57
2022-12-23T05:52:49.412Z,9.02
2022-12-23T05:55:18.014Z,10.50
2022-12-23T05:57:46.497Z,10.43
2022-12-23T06:00:17.099Z,9.38
2022-12-23T06:02:53.486Z,9.68
2022-12-23T06:05:22.920Z,10.13
2022-12-23T06:07:51.513Z,10.65
2022-12-23T06:10:21.609Z,10.70
2022-12-23T06:12:50.353Z,10.85
2022-12-23T06:15:19.995Z,10.95
2022-12-23T06:17:50.637Z,9.57
2022-12-23T06:20:20.982Z,9.98
2022-12-23T06:22:49.910Z,10.43
2022-12-23T06:25:18.208Z,10.68
2022-12-23T06:27:46.716Z,10.35
2022-12-23T06:30:15.597Z,9.10
2022-12-23T06:32:44.760Z,8.63
2022-12-23T06:35:14.334Z,7.88
2022-12-23T06:37:42.973Z,8.65
2022-12-23T06:40:12.856Z,8.32
2022-12-23T06:42:41.609Z,7.05
2022-12-23T06:45:11.122Z,8.30
2022-12-23T06:47:39.723Z,7.50
2022-12-23T06:50:09.070Z,7.63
2022-12-23T06:52:39.225Z,8.20
2022-12-23T06:55:08.216Z,7.95
2022-12-23T06:57:36.852Z,8.20
2022-12-23T07:00:05.698Z,7.43
2022-12-23T07:02:34.518Z,8.32
2022-12-23T07:05:03.117Z,8.00
2022-12-23T07:07:33.086Z,8.35
2022-12-23T07:10:02.740Z,8.70
2022-12-23T07:12:31.438Z,21.58
2022-12-23T07:15:00.104Z,9.93
2022-12-23T07:17:29.177Z,13.98
2022-12-23T07:19:57.384Z,22.05
2022-12-23T07:22:26.130Z,11.85
2022-12-23T07:24:54.405Z,9.38
2022-12-23T07:27:24.439Z,9.40
2022-12-23T07:29:52.875Z,8.85
2022-12-23T07:32:21.404Z,9.43
2022-12-23T07:34:49.968Z,9.18
2022-12-23T07:37:18.613Z,10.00
2022-12-23T07:39:47.088Z,11.63
2022-12-23T07:42:43.276Z,9.75
2022-12-23T07:45:06.555Z,10.07
2022-12-23T07:47:35.165Z,9.52
2022-12-23T07:50:03.709Z,9.90
2022-12-23T07:52:32.282Z,9.57
2022-12-23T07:55:00.742Z,9.88
2022-12-23T07:57:29.482Z,10.18
2022-12-23T07:59:58.139Z,11.10
2022-12-23T08:02:28.372Z,10.68
2022-12-23T08:04:57.734Z,10.32
2022-12-23T08:07:26.416Z,11.70
2022-12-23T08:09:55.245Z,11.02
2022-12-23T08:12:23.991Z,10.60
2022-12-23T08:14:52.862Z,10.98
2022-12-23T08:17:22.199Z,10.93
2022-12-23T08:19:52.024Z,11.35
2022-12-23T08:22:20.607Z,10.95
2022-12-23T08:24:48.964Z,11.63
2022-12-23T08:27:17.563Z,11.75
2022-12-23T08:29:45.946Z,11.35
2022-12-23T08:32:14.374Z,11.32
2022-12-23T08:34:42.747Z,10.57
2022-12-23T08:37:12.661Z,10.45
2022-12-23T08:39:41.091Z,11.00
2022-12-23T08:42:10.269Z,10.45
2022-12-23T08:44:38.559Z,11.77
2022-12-23T08:47:07.165Z,11.93
2022-12-23T08:49:36.563Z,11.00
2022-12-23T08:52:05.182Z,9.95
2022-12-23T08:54:35.089Z,10.30
2022-12-23T08:57:03.660Z,10.52
2022-12-23T08:59:31.977Z,10.00
2022-12-23T09:02:02.320Z,10.57
2022-12-23T09:04:30.669Z,10.07
2022-12-23T09:06:59.347Z,10.80
2022-12-23T09:09:27.952Z,12.57
2022-12-23T09:11:57.980Z,11.88
2022-12-23T09:14:26.343Z,11.52
2022-12-23T09:16:54.879Z,10.50
2022-12-23T09:19:23.265Z,11.52
2022-12-23T09:21:51.855Z,16.00
2022-12-23T09:24:20.158Z,12.68
2022-12-23T09:26:48.749Z,13.32
2022-12-23T09:29:18.420Z,12.15
2022-12-23T09:31:47.126Z,10.13
2022-12-23T09:34:15.464Z,11.70
2022-12-23T09:36:44.152Z,20.80
2022-12-23T09:39:12.702Z,16.70
2022-12-23T09:41:56.187Z,16.70
2022-12-23T09:44:41.821Z,15.57
2022-12-23T09:47:13.189Z,15.55
2022-12-23T09:49:47.808Z,10.60
2022-12-23T09:52:21.232Z,10.80
2022-12-23T09:54:52.963Z,10.93
2022-12-23T09:57:24.137Z,11.63
2022-12-23T10:00:02.872Z,10.35
2022-12-23T10:02:44.556Z,9.57
2022-12-23T10:05:22.035Z,8.77
2022-12-23T10:07:53.200Z,8.68
2022-12-23T10:10:29.450Z,9.18
2022-12-23T10:12:59.824Z,8.32
2022-12-23T10:15:31.695Z,8.20
2022-12-23T10:18:04.046Z,8.25
2022-12-23T10:20:39.030Z,7.97
2022-12-23T10:23:12.413Z,9.70
2022-12-23T10:25:44.825Z,7.72
2022-12-23T10:28:13.673Z,8.93
2022-12-23T10:31:23.810Z,7.82
2022-12-23T10:33:38.898Z,7.18
2022-12-23T10:36:11.983Z,7.63
2022-12-23T10:38:49.358Z,8.27
2022-12-23T10:41:27.133Z,7.88
2022-12-23T10:44:05.670Z,7.93
2022-12-23T10:46:40.714Z,6.90
2022-12-23T10:49:16.921Z,7.28
2022-12-23T10:51:47.900Z,6.45
2022-12-23T10:54:19.290Z,8.50
2022-12-23T10:56:47.992Z,7.28
2022-12-23T10:59:17.998Z,6.55
2022-12-23T11:01:48.768Z,7.72
2022-12-23T11:04:19.561Z,8.90
2022-12-23T11:07:10.656Z,8.70
2022-12-23T11:09:42.319Z,7.68
2022-12-23T11:12:12.106Z,9.05
2022-12-23T11:14:42.867Z,9.20
2022-12-23T11:17:23.353Z,8.15
2022-12-23T11:20:09.243Z,9.00
2022-12-23T11:22:38.522Z,9.23
2022-12-23T11:25:28.005Z,9.10
2022-12-23T11:27:58.541Z,9.05
2022-12-23T11:30:28.288Z,10.88
2022-12-23T11:32:58.072Z,9.32
2022-12-23T11:35:29.012Z,9.15
2022-12-23T11:37:57.751Z,9.48
2022-12-23T11:40:28.654Z,8.65
2022-12-23T11:43:02.437Z,9.20
2022-12-23T11:45:32.198Z,8.80
2022-12-23T11:48:01.933Z,8.90
2022-12-23T11:50:34.010Z,8.90
2022-12-23T11:53:06.095Z,9.05
2022-12-23T11:55:34.703Z,12.55
2022-12-23T11:58:03.999Z,19.15
2022-12-23T12:00:38.520Z,12.57
2022-12-23T12:03:08.832Z,12.48
2022-12-23T12:05:40.666Z,13.90
2022-12-23T12:08:11.937Z,11.93
2022-12-23T12:10:41.867Z,13.15
2022-12-23T12:13:23.857Z,13.48
2022-12-23T12:15:59.873Z,15.05
2022-12-23T12:18:30.040Z,18.00
2022-12-23T12:21:01.679Z,12.75
2022-12-23T12:23:38.893Z,12.45
2022-12-23T12:26:10.576Z,12.40
2022-12-23T12:28:40.615Z,13.35
2022-12-23T12:31:17.793Z,15.15
2022-12-23T12:33:50.885Z,12.10
2022-12-23T12:36:26.459Z,12.95
2022-12-23T12:38:56.158Z,11.50
2022-12-23T12:41:29.331Z,10.07
2022-12-23T12:44:03.413Z,9.45
2022-12-23T12:46:36.015Z,7.95
2022-12-23T12:49:12.404Z,7.70
2022-12-23T12:51:45.017Z,6.93
2022-12-23T12:54:19.900Z,8.07
2022-12-23T12:56:51.809Z,7.47
2022-12-23T12:59:22.801Z,9.25
2022-12-23T13:02:03.374Z,7.03
2022-12-23T13:05:08.177Z,7.88
2022-12-23T13:07:45.247Z,9.65
2022-12-23T13:10:17.982Z,9.95
2022-12-23T13:12:57.831Z,9.38
2022-12-23T13:15:31.724Z,9.35
2022-12-23T13:18:14.885Z,9.48
2022-12-23T13:20:49.591Z,10.05
2022-12-23T13:23:45.816Z,10.68
2022-12-23T13:26:16.653Z,10.15
2022-12-23T13:28:52.271Z,10.02
2022-12-23T13:31:29.464Z,14.57
2022-12-23T13:34:02.924Z,11.48
2022-12-23T13:36:42.073Z,11.55
2022-12-23T13:39:24.074Z,15.50
2022-12-23T13:44:22.191Z,11.65
2022-12-23T13:46:58.630Z,13.95
2022-12-23T13:49:34.431Z,14.77
2022-12-23T13:52:08.417Z,11.27
2022-12-23T13:54:46.763Z,10.50
2022-12-23T13:57:25.327Z,9.07
2022-12-23T14:00:06.074Z,7.82
2022-12-23T14:03:01.026Z,12.23
2022-12-23T14:05:45.534Z,12.35
2022-12-23T14:08:28.439Z,12.52
2022-12-23T14:11:00.359Z,10.88
2022-12-23T14:16:27.053Z,10.75
2022-12-23T14:19:24.011Z,9.25
2022-12-23T14:22:05.251Z,10.57
2022-12-23T14:25:15.379Z,11.57
2022-12-23T14:27:54.070Z,16.05
2022-12-23T14:30:26.202Z,11.75
2022-12-23T14:32:59.973Z,14.23
2022-12-23T14:35:52.839Z,13.88
2022-12-23T14:38:30.882Z,13.07
2022-12-23T14:41:40.652Z,13.73
2022-12-23T14:44:21.285Z,14.60
2022-12-23T14:46:59.098Z,12.85
2022-12-23T14:49:43.130Z,14.77
2022-12-23T14:52:54.186Z,18.83
2022-12-23T14:55:49.329Z,10.85
2022-12-23T14:58:54.897Z,12.73
2022-12-23T15:01:30.614Z,11.75
2022-12-23T15:04:01.818Z,10.57
2022-12-23T15:06:34.947Z,10.10
2022-12-23T15:09:11.010Z,11.43
2022-12-23T15:11:41.808Z,11.38
2022-12-23T15:14:18.577Z,13.60
2022-12-23T15:16:47.573Z,27.60
2022-12-23T15:19:26.272Z,18.40
2022-12-23T15:22:22.132Z,32.05
2022-12-23T15:25:01.740Z,18.80
2022-12-23T15:27:35.932Z,13.82
2022-12-23T15:30:07.542Z,14.25
2022-12-23T15:32:37.356Z,14.10
2022-12-23T15:35:22.390Z,15.57
2022-12-23T15:37:52.615Z,14.85
2022-12-23T15:40:27.108Z,14.10
2022-12-23T15:42:58.958Z,14.15
2022-12-23T15:45:37.447Z,15.95
2022-12-23T15:48:08.608Z,16.40
2022-12-23T15:50:42.089Z,15.73
2022-12-23T15:53:17.726Z,15.10
2022-12-23T15:55:46.943Z,16.73
2022-12-23T15:58:23.573Z,17.10
2022-12-23T16:00:55.895Z,18.15
2022-12-23T16:03:35.227Z,18.65
2022-12-23T16:06:12.635Z,16.90
2022-12-23T16:08:41.927Z,16.67
2022-12-23T16:11:15.763Z,17.73
2022-12-23T16:13:58.868Z,16.13
2022-12-23T16:16:40.059Z,18.83
2022-12-23T16:19:42.892Z,29.27
2022-12-23T16:22:36.861Z,22.58
2022-12-23T16:25:12.034Z,17.88
2022-12-23T16:27:42.464Z,19.83
2022-12-23T16:30:20.153Z,20.02
2022-12-23T16:32:53.277Z,18.35
2022-12-23T16:35:32.821Z,18.70
2022-12-23T16:38:11.890Z,21.88
2022-12-23T16:40:43.345Z,19.08
2022-12-23T16:43:11.775Z,16.40
2022-12-23T16:45:48.101Z,16.88
2022-12-23T16:48:26.948Z,16.15
2022-12-23T16:50:59.403Z,17.45
2022-12-23T16:53:28.913Z,15.70
2022-12-23T16:56:01.126Z,15.05
2022-12-23T16:58:33.414Z,14.50
2022-12-23T17:01:03.111Z,14.52
2022-12-23T17:03:36.636Z,14.50
2022-12-23T17:06:06.967Z,17.98
2022-12-23T17:08:35.849Z,17.15
2022-12-23T17:11:10.806Z,22.08
2022-12-23T17:13:40.250Z,17.77
2022-12-23T17:16:15.783Z,17.15
2022-12-23T17:18:45.695Z,16.67
2022-12-23T17:21:20.403Z,15.45
2022-12-23T17:23:57.763Z,15.32
2022-12-23T17:26:34.669Z,16.17
2022-12-23T17:29:04.930Z,15.80
2022-12-23T17:31:42.000Z,18.67
2022-12-23T17:34:17.811Z,18.40
2022-12-23T17:36:50.554Z,16.08
2022-12-23T17:39:22.097Z,15.25
2022-12-23T17:41:58.836Z,17.55
2022-12-23T17:44:29.695Z,17.40
2022-12-23T17:47:00.864Z,15.88
2022-12-23T17:49:31.232Z,16.83
2022-12-23T17:52:00.854Z,16.58
2022-12-23T17:54:29.782Z,15.15
2022-12-23T17:57:04.095Z,16.95
2022-12-23T17:59:35.007Z,17.08
2022-12-23T18:02:06.603Z,16.23
2022-12-23T18:04:36.903Z,21.20
2022-12-23T18:07:18.928Z,20.15
2022-12-23T18:10:01.214Z,21.02
2022-12-23T18:12:36.262Z,18.02
2022-12-23T18:15:08.773Z,18.63
2022-12-23T18:17:37.930Z,22.00
2022-12-23T18:20:11.449Z,24.13
2022-12-23T18:22:40.097Z,19.98
2022-12-23T18:25:15.911Z,19.40
2022-12-23T18:27:44.513Z,21.60
2022-12-23T18:30:13.215Z,20.67
2022-12-23T18:32:42.588Z,22.42
2022-12-23T18:35:30.996Z,21.88
2022-12-23T18:38:00.590Z,21.38
2022-12-23T18:40:33.015Z,20.02
2022-12-23T18:43:02.325Z,19.83
2022-12-23T18:45:34.649Z,19.67
2022-12-23T18:48:07.485Z,18.65
2022-12-23T18:50:39.259Z,18.05
2022-12-23T18:53:09.132Z,19.05
2022-12-23T18:55:37.717Z,19.50
2022-12-23T18:58:06.179Z,19.15
2022-12-23T19:00:34.687Z,20.80
2022-12-23T19:03:03.414Z,19.90
2022-12-23T19:05:33.839Z,18.58
2022-12-23T19:08:03.897Z,17.67
2022-12-23T19:10:34.721Z,17.75
2022-12-23T19:13:03.296Z,16.85
2022-12-23T19:15:33.035Z,18.05
2022-12-23T19:18:01.589Z,17.60
2022-12-23T19:20:29.997Z,18.63
2022-12-23T19:22:58.575Z,16.92
2022-12-23T19:25:28.361Z,16.80
2022-12-23T19:27:57.405Z,15.73
2022-12-23T19:30:25.988Z,17.88
2022-12-23T19:32:54.577Z,16.70
2022-12-23T19:35:22.976Z,17.90
2022-12-23T19:37:51.658Z,15.80
2022-12-23T19:40:20.820Z,17.27
2022-12-23T19:42:50.827Z,15.85
2022-12-23T19:45:19.322Z,17.08
2022-12-23T19:47:48.017Z,16.90
2022-12-23T19:50:16.552Z,15.82
2022-12-23T19:52:45.150Z,15.07
2022-12-23T19:55:15.828Z,15.07
2022-12-23T19:57:44.335Z,14.48
2022-12-23T20:00:16.107Z,16.20
2022-12-23T20:02:44.738Z,15.32
2022-12-23T20:05:13.133Z,14.85
2022-12-23T20:07:41.739Z,13.80
2022-12-23T20:10:11.008Z,14.63
2022-12-23T20:12:40.568Z,16.15
2022-12-23T20:15:10.379Z,17.58
2022-12-23T20:17:40.614Z,15.85
2022-12-23T20:20:09.972Z,15.55
2022-12-23T20:22:38.907Z,15.68
2022-12-23T20:25:08.045Z,14.57
2022-12-23T20:27:38.858Z,14.43
2022-12-23T20:30:08.445Z,14.33
2022-12-23T20:32:37.135Z,13.60
2022-12-23T20:35:08.167Z,15.00
2022-12-23T20:37:36.891Z,13.23
2022-12-23T20:40:07.400Z,12.80
2022-12-23T20:42:36.659Z,13.40
2022-12-23T20:45:05.530Z,13.02
2022-12-23T20:47:34.143Z,14.38
2022-12-23T20:50:02.387Z,13.27
2022-12-23T20:52:32.836Z,14.68
2022-12-23T20:55:01.739Z,15.05
2022-12-23T20:57:31.439Z,13.90
2022-12-23T21:00:00.615Z,13.27
2022-12-23T21:02:29.311Z,14.30
2022-12-23T21:04:57.620Z,12.50
2022-12-23T21:07:26.930Z,12.38
2022-12-23T21:09:56.616Z,11.55
2022-12-23T21:12:25.163Z,11.20
2022-12-23T21:14:53.425Z,12.07
2022-12-23T21:17:23.964Z,11.15
2022-12-23T21:19:52.183Z,11.07
2022-12-23T21:22:20.932Z,11.25
2022-12-23T21:24:49.131Z,11.88
2022-12-23T21:27:19.053Z,11.00
2022-12-23T21:29:47.253Z,10.15
2022-12-23T21:32:15.826Z,11.07
2022-12-23T21:34:44.146Z,10.80
2022-12-23T21:37:13.304Z,12.88
2022-12-23T21:39:42.155Z,11.20
2022-12-23T21:42:11.259Z,11.25
2022-12-23T21:44:42.943Z,11.48
2022-12-23T21:47:18.648Z,10.68
2022-12-23T21:49:49.270Z,10.18
2022-12-23T21:52:20.216Z,11.45
2022-12-23T21:54:48.537Z,10.05
2022-12-23T21:57:17.102Z,9.75
2022-12-23T21:59:46.838Z,9.43
2022-12-23T22:02:17.503Z,9.25
2022-12-23T22:04:45.875Z,9.90
2022-12-23T22:07:14.409Z,10.75
2022-12-23T22:09:42.609Z,9.15
2022-12-23T22:12:11.124Z,10.05
2022-12-23T22:14:39.676Z,11.45
2022-12-23T22:17:09.761Z,9.25
2022-12-23T22:19:38.102Z,9.98
2022-12-23T22:22:06.678Z,13.45
2022-12-23T22:24:34.874Z,9.05
2022-12-23T22:27:03.621Z,8.70
2022-12-23T22:29:32.067Z,8.50
2022-12-23T22:32:00.715Z,10.00
2022-12-23T22:34:30.365Z,9.73
2022-12-23T22:36:58.899Z,12.98
2022-12-23T22:39:27.288Z,9.93
2022-12-23T22:41:55.843Z,10.95
2022-12-23T22:44:24.073Z,11.02
2022-12-23T22:46:52.593Z,9.90
2022-12-23T22:49:21.048Z,10.68
2022-12-23T22:51:51.013Z,10.18
2022-12-23T22:54:19.543Z,11.40
2022-12-23T22:56:48.099Z,11.15
2022-12-23T22:59:21.285Z,11.38
2022-12-23T23:01:50.078Z,11.05
2022-12-23T23:04:18.718Z,9.85
2022-12-23T23:06:47.442Z,10.98
2022-12-23T23:09:18.921Z,10.50
2022-12-23T23:11:47.621Z,11.18
2022-12-23T23:14:16.050Z,10.98
2022-12-23T23:16:44.795Z,12.20
2022-12-23T23:19:14.443Z,11.32
2022-12-23T23:21:43.240Z,12.43
2022-12-23T23:24:12.040Z,11.55
2022-12-23T23:26:41.996Z,10.57
2022-12-23T23:29:10.291Z,10.52
2022-12-23T23:31:42.442Z,10.63
2022-12-23T23:34:11.282Z,12.48
2022-12-23T23:36:40.112Z,17.77
2022-12-23T23:39:08.459Z,12.30
2022-12-23T23:41:37.136Z,10.35
2022-12-23T23:44:06.789Z,11.20
2022-12-23T23:46:35.916Z,10.82
2022-12-23T23:49:04.406Z,11.07
2022-12-23T23:51:33.016Z,10.50
2022-12-23T23:54:01.222Z,9.60
2022-12-23T23:56:35.827Z,10.00
2022-12-23T23:59:08.416Z,10.20
